createdAt,value
2023-02-03T00:55:25.433Z,25.34
2023-02-03T00:56:26.391Z,25.33
2023-02-03T00:57:26.389Z,25.31
2023-02-03T00:58:26.374Z,25.33
2023-02-03T00:59:26.368Z,25.31
2023-02-03T01:00:26.746Z,25.35
2023-02-03T01:01:26.460Z,25.32
2023-02-03T01:02:26.385Z,25.32
2023-02-03T01:03:26.330Z,25.31
2023-02-03T01:04:26.321Z,25.35
2023-02-03T01:05:26.317Z,25.29
2023-02-03T01:06:26.324Z,25.32
2023-02-03T01:07:26.292Z,25.32
2023-02-03T01:08:26.293Z,25.26
2023-02-03T01:09:26.291Z,25.31
2023-02-03T01:10:26.598Z,25.32
2023-02-03T01:11:26.285Z,25.32
2023-02-03T01:12:26.250Z,25.29
2023-02-03T01:13:26.244Z,25.31
2023-02-03T01:14:26.232Z,25.36
2023-02-03T01:15:26.222Z,25.32
2023-02-03T01:16:28.584Z,25.26
2023-02-03T01:17:26.211Z,25.29
2023-02-03T01:18:26.217Z,25.26
2023-02-03T01:19:26.188Z,25.29
2023-02-03T01:20:26.540Z,25.32
2023-02-03T01:21:26.202Z,25.29
2023-02-03T01:22:26.159Z,25.31
2023-02-03T01:23:26.164Z,25.25
2023-02-03T01:24:26.147Z,25.32
2023-02-03T01:25:26.136Z,25.29
2023-02-03T01:26:26.125Z,25.28
2023-02-03T01:27:26.139Z,25.24
2023-02-03T01:28:26.116Z,25.26
2023-02-03T01:29:26.100Z,25.25
2023-02-03T01:30:26.473Z,25.25
2023-02-03T01:31:26.399Z,25.28
2023-02-03T01:32:26.067Z,25.28
2023-02-03T01:33:26.065Z,25.25
2023-02-03T01:34:26.064Z,25.28
2023-02-03T01:35:26.047Z,25.25
2023-02-03T01:36:26.044Z,25.22
2023-02-03T01:37:26.030Z,25.24
2023-02-03T01:38:26.020Z,25.21
2023-02-03T01:39:26.015Z,25.22
2023-02-03T01:40:26.444Z,25.24
2023-02-03T01:41:25.995Z,25.23
2023-02-03T01:42:25.988Z,25.19
2023-02-03T01:43:25.993Z,25.22
2023-02-03T01:44:25.966Z,25.23
2023-02-03T01:45:25.958Z,25.22
2023-02-03T01:46:26.049Z,25.18
2023-02-03T01:47:25.941Z,25.24
2023-02-03T01:48:25.948Z,25.25
2023-02-03T01:49:25.924Z,25.18
2023-02-03T01:50:26.308Z,25.19
2023-02-03T01:51:25.896Z,25.22
2023-02-03T01:52:25.892Z,25.21
2023-02-03T01:53:25.881Z,25.19
2023-02-03T01:54:25.875Z,25.21
2023-02-03T01:55:25.863Z,25.16
2023-02-03T01:56:25.860Z,25.24
2023-02-03T01:57:25.854Z,25.24
2023-02-03T01:58:25.847Z,25.22
2023-02-03T01:59:25.852Z,25.18
2023-02-03T02:00:26.199Z,25.22
2023-02-03T02:01:25.879Z,25.18
2023-02-03T02:02:25.844Z,25.15
2023-02-03T02:03:26.011Z,25.17
2023-02-03T02:04:25.784Z,25.16
2023-02-03T02:05:25.776Z,25.21
2023-02-03T02:06:25.768Z,25.19
2023-02-03T02:07:25.766Z,25.18
2023-02-03T02:08:25.758Z,25.16
2023-02-03T02:09:25.740Z,25.16
2023-02-03T02:10:26.207Z,25.14
2023-02-03T02:11:25.725Z,25.21
2023-02-03T02:12:25.722Z,25.18
2023-02-03T02:13:25.706Z,25.16
2023-02-03T02:14:25.694Z,25.18
2023-02-03T02:15:25.717Z,25.16
2023-02-03T02:16:25.672Z,25.16
2023-02-03T02:17:25.671Z,25.21
2023-02-03T02:18:25.668Z,25.15
2023-02-03T02:19:25.647Z,25.14
2023-02-03T02:20:25.935Z,25.19
2023-02-03T02:21:25.626Z,25.15
2023-02-03T02:22:25.623Z,25.15
2023-02-03T02:23:25.618Z,25.15
2023-02-03T02:24:25.607Z,25.15
2023-02-03T02:25:25.591Z,25.11
2023-02-03T02:26:25.589Z,25.15
2023-02-03T02:27:25.582Z,25.14
2023-02-03T02:28:25.568Z,25.15
2023-02-03T02:29:25.577Z,25.12
2023-02-03T02:30:25.840Z,25.08
2023-02-03T02:31:25.689Z,25.14
2023-02-03T02:32:25.536Z,25.15
2023-02-03T02:33:25.523Z,25.11
2023-02-03T02:34:25.524Z,25.06
2023-02-03T02:35:25.516Z,25.08
2023-02-03T02:36:25.499Z,25.14
2023-02-03T02:37:25.488Z,25.11
2023-02-03T02:38:25.477Z,25.09
2023-02-03T02:39:25.489Z,25.12
2023-02-03T02:40:25.826Z,25.14
2023-02-03T02:41:25.453Z,25.08
2023-02-03T02:42:25.446Z,25.09
2023-02-03T02:43:25.436Z,25.09
2023-02-03T02:44:25.437Z,25.09
2023-02-03T02:45:25.425Z,25.05
2023-02-03T02:46:25.473Z,25.04
2023-02-03T02:47:25.421Z,25.06
2023-02-03T02:48:25.392Z,25.08
2023-02-03T02:49:25.383Z,25.06
2023-02-03T02:50:25.793Z,25.05
2023-02-03T02:51:25.371Z,25.08
2023-02-03T02:52:25.363Z,25.06
2023-02-03T02:53:25.339Z,25.08
2023-02-03T02:54:25.344Z,25.09
2023-02-03T02:55:25.330Z,25.09
2023-02-03T02:56:25.340Z,25.03
2023-02-03T02:57:25.305Z,25.09
2023-02-03T02:58:25.304Z,25.04
2023-02-03T02:59:25.306Z,25.06
2023-02-03T03:00:25.668Z,25.01
2023-02-03T03:01:25.304Z,25.03
2023-02-03T03:02:25.271Z,25.08
2023-02-03T03:03:25.295Z,25.06
2023-02-03T03:04:25.326Z,25.05
2023-02-03T03:05:25.235Z,25.06
2023-02-03T03:06:25.280Z,25.04
2023-02-03T03:07:25.226Z,25.03
2023-02-03T03:08:25.213Z,25.06
2023-02-03T03:09:25.205Z,25.04
2023-02-03T03:10:25.607Z,25.05
2023-02-03T03:11:25.189Z,25.04
2023-02-03T03:12:25.183Z,25.04
2023-02-03T03:13:25.173Z,25.02
2023-02-03T03:14:25.157Z,25.04
2023-02-03T03:15:25.153Z,25.04
2023-02-03T03:16:25.246Z,25.04
2023-02-03T03:17:25.133Z,25.02
2023-02-03T03:18:25.122Z,25.03
2023-02-03T03:19:25.146Z,25.00
2023-02-03T03:20:25.429Z,25.01
2023-02-03T03:21:25.101Z,25.00
2023-02-03T03:22:25.084Z,25.04
2023-02-03T03:23:25.072Z,24.96
2023-02-03T03:24:25.073Z,25.02
2023-02-03T03:25:25.056Z,25.00
2023-02-03T03:26:25.049Z,24.98
2023-02-03T03:27:25.042Z,24.95
2023-02-03T03:28:25.032Z,24.98
2023-02-03T03:29:25.027Z,24.98
2023-02-03T03:30:25.381Z,25.01
2023-02-03T03:31:25.096Z,24.98
2023-02-03T03:32:25.003Z,24.98
2023-02-03T03:33:24.991Z,24.98
2023-02-03T03:34:24.981Z,24.96
2023-02-03T03:35:25.008Z,24.99
2023-02-03T03:36:24.964Z,24.96
2023-02-03T03:37:24.952Z,24.93
2023-02-03T03:38:24.939Z,24.98
2023-02-03T03:39:24.932Z,24.96
2023-02-03T03:40:25.309Z,24.95
2023-02-03T03:41:24.916Z,24.95
2023-02-03T03:42:24.909Z,24.96
2023-02-03T03:43:24.903Z,24.92
2023-02-03T03:44:24.889Z,24.96
2023-02-03T03:45:24.890Z,24.93
2023-02-03T03:46:24.955Z,24.93
2023-02-03T03:47:24.869Z,24.92
2023-02-03T03:48:24.857Z,24.91
2023-02-03T03:49:24.845Z,24.95
2023-02-03T03:50:24.969Z,24.95
2023-02-03T03:51:24.863Z,24.89
2023-02-03T03:52:24.814Z,24.91
2023-02-03T03:53:24.809Z,24.89
2023-02-03T03:54:24.807Z,24.92
2023-02-03T03:55:24.792Z,24.92
2023-02-03T03:56:24.781Z,24.92
2023-02-03T03:57:24.790Z,24.95
2023-02-03T03:58:24.769Z,24.91
2023-02-03T03:59:24.752Z,24.93
2023-02-03T04:00:25.095Z,24.89
2023-02-03T04:01:24.891Z,24.91
2023-02-03T04:02:24.770Z,24.93
2023-02-03T04:03:24.801Z,24.92
2023-02-03T04:04:24.708Z,24.91
2023-02-03T04:05:24.721Z,24.89
2023-02-03T04:06:24.697Z,24.91
2023-02-03T04:07:24.709Z,24.91
2023-02-03T04:08:24.687Z,24.86
2023-02-03T04:09:24.664Z,24.91
2023-02-03T04:10:24.829Z,24.89
2023-02-03T04:11:24.652Z,24.89
2023-02-03T04:12:24.643Z,24.87
2023-02-03T04:13:24.643Z,24.92
2023-02-03T04:14:24.628Z,24.92
2023-02-03T04:15:24.612Z,24.89
2023-02-03T04:16:24.648Z,24.91
2023-02-03T04:17:24.594Z,24.89
2023-02-03T04:18:24.593Z,24.86
2023-02-03T04:19:24.588Z,24.88
2023-02-03T04:20:24.796Z,24.91
2023-02-03T04:21:24.555Z,24.87
2023-02-03T04:22:24.547Z,24.88
2023-02-03T04:23:24.570Z,24.82
2023-02-03T04:24:24.533Z,24.86
2023-02-03T04:25:24.548Z,24.89
2023-02-03T04:26:24.513Z,24.89
2023-02-03T04:27:24.518Z,24.89
2023-02-03T04:28:24.493Z,24.85
2023-02-03T04:29:24.494Z,24.86
2023-02-03T04:30:24.478Z,24.84
2023-02-03T04:31:24.595Z,24.84
2023-02-03T04:32:24.463Z,24.85
2023-02-03T04:33:24.451Z,24.82
2023-02-03T04:34:24.444Z,24.85
2023-02-03T04:35:24.440Z,24.88
2023-02-03T04:36:24.424Z,24.80
2023-02-03T04:37:24.415Z,24.83
2023-02-03T04:38:24.407Z,24.85
2023-02-03T04:39:24.425Z,24.84
2023-02-03T04:40:24.406Z,24.85
2023-02-03T04:41:24.425Z,24.85
2023-02-03T04:42:24.374Z,24.81
2023-02-03T04:43:24.360Z,24.84
2023-02-03T04:44:24.347Z,24.81
2023-02-03T04:45:24.396Z,24.82
2023-02-03T04:46:24.340Z,24.80
2023-02-03T04:47:24.331Z,24.79
2023-02-03T04:48:24.317Z,24.82
2023-02-03T04:49:24.313Z,24.85
2023-02-03T04:50:24.427Z,24.75
2023-02-03T04:51:24.291Z,24.84
2023-02-03T04:52:24.290Z,24.80
2023-02-03T04:53:24.286Z,24.81
2023-02-03T04:54:24.290Z,24.80
2023-02-03T04:55:24.285Z,24.82
2023-02-03T04:56:24.259Z,24.80
2023-02-03T04:57:24.242Z,24.78
2023-02-03T04:58:24.227Z,24.80
2023-02-03T04:59:24.221Z,24.84
2023-02-03T05:00:24.227Z,24.80
2023-02-03T05:01:24.276Z,24.82
2023-02-03T05:02:24.191Z,24.78
2023-02-03T05:03:26.310Z,24.79
2023-02-03T05:04:24.175Z,24.79
2023-02-03T05:05:24.165Z,24.82
2023-02-03T05:06:24.164Z,24.85
2023-02-03T05:07:24.146Z,24.80
2023-02-03T05:08:24.140Z,24.79
2023-02-03T05:09:24.133Z,24.78
2023-02-03T05:10:24.298Z,24.80
2023-02-03T05:11:24.152Z,24.76
2023-02-03T05:12:24.111Z,24.78
2023-02-03T05:13:24.095Z,24.78
2023-02-03T05:14:24.086Z,24.76
2023-02-03T05:15:24.074Z,24.81
2023-02-03T05:16:24.130Z,24.79
2023-02-03T05:17:24.057Z,24.81
2023-02-03T05:18:24.052Z,24.76
2023-02-03T05:19:24.052Z,24.76
2023-02-03T05:20:24.037Z,24.79
2023-02-03T05:21:24.024Z,24.73
2023-02-03T05:22:24.013Z,24.75
2023-02-03T05:23:24.016Z,24.73
2023-02-03T05:24:23.999Z,24.76
2023-02-03T05:25:23.991Z,24.79
2023-02-03T05:26:23.979Z,24.75
2023-02-03T05:27:24.000Z,24.76
2023-02-03T05:28:23.959Z,24.75
2023-02-03T05:29:23.959Z,24.76
2023-02-03T05:30:23.952Z,24.75
2023-02-03T05:31:24.123Z,24.69
2023-02-03T05:32:23.931Z,24.79
2023-02-03T05:33:23.915Z,24.71
2023-02-03T05:34:23.902Z,24.72
2023-02-03T05:35:23.896Z,24.73
2023-02-03T05:36:23.901Z,24.78
2023-02-03T05:37:23.879Z,24.75
2023-02-03T05:38:23.875Z,24.76
2023-02-03T05:39:23.860Z,24.73
2023-02-03T05:40:23.850Z,24.71
2023-02-03T05:41:23.850Z,24.75
2023-02-03T05:42:23.845Z,24.72
2023-02-03T05:43:23.850Z,24.73
2023-02-03T05:44:23.819Z,24.75
2023-02-03T05:45:23.811Z,24.72
2023-02-03T05:46:23.803Z,24.73
2023-02-03T05:47:23.799Z,24.69
2023-02-03T05:48:23.779Z,24.71
2023-02-03T05:49:23.770Z,24.73
2023-02-03T05:50:23.779Z,24.72
2023-02-03T05:51:23.795Z,24.69
2023-02-03T05:52:23.750Z,24.68
2023-02-03T05:53:23.739Z,24.73
2023-02-03T05:54:23.743Z,24.67
2023-02-03T05:55:23.725Z,24.66
2023-02-03T05:56:23.718Z,24.76
2023-02-03T05:57:23.703Z,24.65
2023-02-03T05:58:23.704Z,24.69
2023-02-03T05:59:23.704Z,24.73
2023-02-03T06:00:23.676Z,24.73
2023-02-03T06:01:23.675Z,24.72
2023-02-03T06:02:23.661Z,24.72
2023-02-03T06:03:23.765Z,24.71
2023-02-03T06:04:23.686Z,24.65
2023-02-03T06:05:23.801Z,24.67
2023-02-03T06:06:23.627Z,24.71
2023-02-03T06:07:23.612Z,24.69
2023-02-03T06:08:23.601Z,24.66
2023-02-03T06:09:23.605Z,24.66
2023-02-03T06:10:23.606Z,24.69
2023-02-03T06:11:23.581Z,24.73
2023-02-03T06:12:23.567Z,24.67
2023-02-03T06:13:23.556Z,24.71
2023-02-03T06:14:23.554Z,24.65
2023-02-03T06:15:23.561Z,24.66
2023-02-03T06:16:23.602Z,24.65
2023-02-03T06:17:23.613Z,24.63
2023-02-03T06:18:23.509Z,24.63
2023-02-03T06:19:23.504Z,24.65
2023-02-03T06:20:23.496Z,24.59
2023-02-03T06:21:23.481Z,24.65
2023-02-03T06:22:23.611Z,24.63
2023-02-03T06:23:23.469Z,24.66
2023-02-03T06:24:23.463Z,24.65
2023-02-03T06:25:23.456Z,24.69
2023-02-03T06:26:23.452Z,24.66
2023-02-03T06:27:23.428Z,24.66
2023-02-03T06:28:23.427Z,24.65
2023-02-03T06:29:23.411Z,24.69
2023-02-03T06:30:23.409Z,24.67
2023-02-03T06:31:23.544Z,24.65
2023-02-03T06:33:23.374Z,24.63
2023-02-03T06:34:23.365Z,24.63
2023-02-03T06:35:23.376Z,24.63
2023-02-03T06:36:23.355Z,24.62
2023-02-03T06:37:24.811Z,24.65
2023-02-03T06:38:23.412Z,24.69
2023-02-03T06:39:23.412Z,24.65
2023-02-03T06:40:23.364Z,24.63
2023-02-03T06:41:23.357Z,24.63
2023-02-03T06:42:23.352Z,24.63
2023-02-03T06:43:23.621Z,24.66
2023-02-03T06:44:23.355Z,24.71
2023-02-03T06:45:23.328Z,24.67
2023-02-03T06:46:23.386Z,24.65
2023-02-03T06:47:23.363Z,24.66
2023-02-03T06:49:23.312Z,24.66
2023-02-03T06:50:23.282Z,24.69
2023-02-03T06:51:23.293Z,24.66
2023-02-03T06:52:23.364Z,24.69
2023-02-03T06:54:23.274Z,25.01
2023-02-03T06:55:23.238Z,25.19
2023-02-03T06:56:23.245Z,25.58
2023-02-03T06:58:23.217Z,25.87
2023-02-03T07:00:31.013Z,26.05
2023-02-03T07:01:23.195Z,26.21
2023-02-03T07:03:23.210Z,26.41
2023-02-03T07:04:26.375Z,26.63
2023-02-03T07:05:23.185Z,26.73
2023-02-03T07:06:54.985Z,26.79
2023-02-03T07:07:23.178Z,26.74
2023-02-03T07:08:23.125Z,27.11
2023-02-03T07:10:23.131Z,27.16
2023-02-03T07:11:23.124Z,27.29
2023-02-03T07:12:23.167Z,27.46
2023-02-03T07:13:23.113Z,27.47
2023-02-03T07:14:23.111Z,27.56
2023-02-03T07:15:23.110Z,27.59
2023-02-03T07:16:23.141Z,27.60
2023-02-03T07:17:23.220Z,27.86
2023-02-03T07:18:45.462Z,28.02
2023-02-03T07:19:23.075Z,28.02
2023-02-03T07:20:23.052Z,28.22
2023-02-03T07:21:23.045Z,28.25
2023-02-03T07:24:23.009Z,28.42
2023-02-03T07:25:23.000Z,28.59
2023-02-03T07:26:23.156Z,28.69
2023-02-03T07:27:22.955Z,28.78
2023-02-03T07:28:23.122Z,28.79
2023-02-03T07:29:23.134Z,28.88
2023-02-03T07:30:22.935Z,29.06
2023-02-03T07:31:23.055Z,29.23
2023-02-03T07:32:22.911Z,29.42
2023-02-03T07:33:22.898Z,29.32
2023-02-03T07:34:22.893Z,29.19
2023-02-03T07:35:22.904Z,29.29
2023-02-03T07:36:22.872Z,29.28
2023-02-03T07:37:22.868Z,29.28
2023-02-03T07:38:22.868Z,29.29
2023-02-03T07:39:22.855Z,29.38
2023-02-03T07:41:22.837Z,29.42
2023-02-03T07:42:22.912Z,29.52
2023-02-03T07:43:22.811Z,29.81
2023-02-03T07:45:22.792Z,29.91
2023-02-03T07:47:22.774Z,30.12
2023-02-03T07:48:22.767Z,30.28
2023-02-03T07:49:22.762Z,30.26
2023-02-03T07:52:22.735Z,30.73
2023-02-03T07:53:22.721Z,30.61
2023-02-03T07:55:22.714Z,30.30
2023-02-03T07:56:22.696Z,30.21
2023-02-03T07:57:22.688Z,30.08
2023-02-03T07:58:22.684Z,29.91
2023-02-03T08:00:22.665Z,29.44
2023-02-03T08:01:22.676Z,29.48
2023-02-03T08:02:22.774Z,29.41
2023-02-03T08:03:23.665Z,29.61
2023-02-03T08:04:22.629Z,29.75
2023-02-03T08:05:22.613Z,29.86
2023-02-03T08:06:22.637Z,29.88
2023-02-03T08:07:22.597Z,29.77
2023-02-03T08:08:22.613Z,29.74
2023-02-03T08:09:22.659Z,29.76
2023-02-03T08:10:22.577Z,29.79
2023-02-03T08:11:22.567Z,29.82
2023-02-03T08:12:22.553Z,29.78
2023-02-03T08:13:22.547Z,29.88
2023-02-03T08:14:22.648Z,29.93
2023-02-03T08:15:22.672Z,30.00
2023-02-03T08:16:22.702Z,29.99
2023-02-03T08:17:22.538Z,30.06
2023-02-03T08:18:22.534Z,30.05
2023-02-03T08:19:22.689Z,30.05
2023-02-03T08:20:22.504Z,30.10
2023-02-03T08:21:22.671Z,30.13
2023-02-03T08:22:22.562Z,30.13
2023-02-03T08:23:22.481Z,30.18
2023-02-03T08:24:22.469Z,30.30
2023-02-03T08:25:22.889Z,30.26
2023-02-03T08:26:22.684Z,30.35
2023-02-03T08:27:22.455Z,30.27
2023-02-03T08:28:22.447Z,30.12
2023-02-03T08:29:22.680Z,30.09
2023-02-03T08:30:22.428Z,30.02
2023-02-03T08:31:22.449Z,29.93
2023-02-03T08:32:22.506Z,29.79
2023-02-03T08:33:22.371Z,29.46
2023-02-03T08:35:22.360Z,28.33
2023-02-03T08:36:22.354Z,27.46
2023-02-03T08:37:22.332Z,26.95
2023-02-03T08:38:22.352Z,27.05
2023-02-03T08:41:22.303Z,27.62
2023-02-03T08:43:22.281Z,28.14
2023-02-03T08:44:22.268Z,27.80
2023-02-03T08:45:22.424Z,27.90
2023-02-03T08:46:22.277Z,27.97
2023-02-03T08:48:22.238Z,28.00
2023-02-03T08:49:22.225Z,28.09
2023-02-03T08:50:22.220Z,28.18
2023-02-03T08:52:22.211Z,28.36
2023-02-03T08:53:22.907Z,28.44
2023-02-03T08:54:22.206Z,28.45
2023-02-03T08:55:22.188Z,28.52
2023-02-03T08:58:22.207Z,28.58
2023-02-03T08:59:22.673Z,28.54
2023-02-03T09:02:22.510Z,28.81
2023-02-03T09:05:22.204Z,29.13
2023-02-03T09:07:22.219Z,29.21
2023-02-03T09:09:22.204Z,29.44
2023-02-03T09:14:22.209Z,29.41
2023-02-03T09:19:22.206Z,29.81
2023-02-03T09:21:33.290Z,29.90
2023-02-03T09:26:22.272Z,30.10
2023-02-03T09:31:22.227Z,30.46
2023-02-03T09:36:22.218Z,30.83
2023-02-03T09:39:22.185Z,30.85
2023-02-03T09:42:22.216Z,30.99
2023-02-03T09:44:22.216Z,30.92
2023-02-03T09:46:22.265Z,30.95
2023-02-03T09:51:22.199Z,31.40
2023-02-03T10:09:37.144Z,32.28
2023-02-03T10:23:21.426Z,33.55
2023-02-03T10:24:21.407Z,33.57
2023-02-03T10:27:21.383Z,33.54
2023-02-03T10:29:21.389Z,33.81
2023-02-03T10:38:21.289Z,34.42
2023-02-03T10:39:21.286Z,34.42
2023-02-03T10:46:22.417Z,34.36
2023-02-03T10:50:36.859Z,34.20
2023-02-03T10:52:21.223Z,34.24
2023-02-03T10:57:21.244Z,34.42
2023-02-03T11:01:21.129Z,34.80
2023-02-03T11:02:21.316Z,34.79
2023-02-03T11:03:21.092Z,34.27
2023-02-03T11:04:21.085Z,34.82
2023-02-03T11:05:21.490Z,35.00
2023-02-03T11:07:21.221Z,35.07
2023-02-03T11:08:21.265Z,35.26
2023-02-03T11:09:21.032Z,35.31
2023-02-03T11:10:21.055Z,35.30
2023-02-03T11:11:21.953Z,35.43
2023-02-03T11:12:21.223Z,35.66
2023-02-03T11:14:20.989Z,35.43
2023-02-03T11:15:20.985Z,35.74
2023-02-03T11:16:21.162Z,35.76
2023-02-03T11:18:20.989Z,35.88
2023-02-03T11:19:20.969Z,35.96
2023-02-03T11:21:20.940Z,36.01
2023-02-03T11:22:20.938Z,36.05
2023-02-03T11:24:20.902Z,36.09
2023-02-03T11:26:20.891Z,36.19
2023-02-03T11:27:20.907Z,36.31
2023-02-03T11:29:23.646Z,36.17
2023-02-03T11:30:20.851Z,36.11
2023-02-03T11:32:20.847Z,36.00
2023-02-03T11:34:20.848Z,35.75
2023-02-03T11:35:23.534Z,31.27
2023-02-03T11:37:20.823Z,28.60
2023-02-03T11:39:20.805Z,29.82
2023-02-03T11:40:20.779Z,30.41
2023-02-03T11:41:22.468Z,30.54
2023-02-03T11:42:20.758Z,30.38
2023-02-03T11:44:20.737Z,30.59
2023-02-03T11:45:20.728Z,30.69
2023-02-03T11:46:20.777Z,30.75
2023-02-03T11:47:23.467Z,30.90
2023-02-03T11:48:20.740Z,30.90
2023-02-03T11:49:20.703Z,31.20
2023-02-03T11:50:20.723Z,31.45
2023-02-03T11:52:20.666Z,32.43
2023-02-03T11:53:23.013Z,32.45
2023-02-03T11:54:20.660Z,32.40
2023-02-03T11:55:20.637Z,32.35
2023-02-03T11:57:20.618Z,31.96
2023-02-03T11:58:20.761Z,31.87
2023-02-03T11:59:21.210Z,31.71
2023-02-03T12:00:20.591Z,31.53
2023-02-03T12:02:53.384Z,31.06
2023-02-03T12:03:54.552Z,30.86
2023-02-03T12:04:54.384Z,30.73
2023-02-03T12:05:54.335Z,30.61
2023-02-03T12:06:54.302Z,30.46
2023-02-03T12:07:54.537Z,30.37
2023-02-03T12:08:54.326Z,30.26
2023-02-03T12:09:54.296Z,30.16
2023-02-03T12:10:54.284Z,30.09
2023-02-03T12:11:54.276Z,29.92
2023-02-03T12:12:54.265Z,29.86
2023-02-03T12:13:54.621Z,29.77
2023-02-03T12:14:54.249Z,29.68
2023-02-03T12:15:54.347Z,29.59
2023-02-03T12:16:54.272Z,29.44
2023-02-03T12:17:54.305Z,29.45
2023-02-03T12:18:54.618Z,29.34
2023-02-03T12:19:54.219Z,29.26
2023-02-03T12:20:54.196Z,29.17
2023-02-03T12:21:54.203Z,29.12
2023-02-03T12:22:54.176Z,29.07
2023-02-03T12:23:54.575Z,28.99
2023-02-03T12:24:54.167Z,28.97
2023-02-03T12:25:54.589Z,28.87
2023-02-03T12:26:54.155Z,28.81
2023-02-03T12:27:54.269Z,28.70
2023-02-03T12:28:54.153Z,28.61
2023-02-03T12:29:54.544Z,28.58
2023-02-03T12:30:54.181Z,28.58
2023-02-03T12:31:54.142Z,28.53
2023-02-03T12:32:54.125Z,28.53
2023-02-03T12:33:54.100Z,28.50
2023-02-03T12:34:54.114Z,28.48
2023-02-03T12:35:54.081Z,28.47
2023-02-03T12:36:54.064Z,28.47
2023-02-03T12:37:54.077Z,28.47
2023-02-03T12:38:54.046Z,28.51
2023-02-03T12:39:54.056Z,28.44
2023-02-03T12:40:54.027Z,28.51
2023-02-03T12:41:54.023Z,28.47
2023-02-03T12:42:54.010Z,28.47
2023-02-03T12:43:54.007Z,28.50
2023-02-03T12:44:53.996Z,28.50
2023-02-03T12:45:54.119Z,28.54
2023-02-03T12:46:53.979Z,28.47
2023-02-03T12:47:53.979Z,28.50
2023-02-03T12:48:53.963Z,28.47
2023-02-03T12:49:53.966Z,28.50
2023-02-03T12:50:54.059Z,28.46
2023-02-03T12:51:53.940Z,28.46
2023-02-03T12:52:54.068Z,28.40
2023-02-03T12:53:54.784Z,28.44
2023-02-03T12:54:53.917Z,28.44
2023-02-03T12:55:53.896Z,28.46
2023-02-03T12:56:53.884Z,28.43
2023-02-03T12:57:53.893Z,28.42
2023-02-03T12:58:53.882Z,28.43
2023-02-03T12:59:54.093Z,28.36
2023-02-03T13:00:53.933Z,28.40
2023-02-03T13:01:53.922Z,28.36
2023-02-03T13:02:53.834Z,28.37
2023-02-03T13:03:53.834Z,28.40
2023-02-03T13:04:56.649Z,28.39
2023-02-03T13:05:54.058Z,28.36
2023-02-03T13:06:53.806Z,28.36
2023-02-03T13:07:53.811Z,28.37
2023-02-03T13:08:53.797Z,28.37
2023-02-03T13:09:54.105Z,28.36
2023-02-03T13:10:53.783Z,28.36
2023-02-03T13:11:53.763Z,28.36
2023-02-03T13:12:53.763Z,28.32
2023-02-03T13:13:53.753Z,28.33
2023-02-03T13:14:54.087Z,28.36
2023-02-03T13:15:53.733Z,28.29
2023-02-03T13:16:53.854Z,28.30
2023-02-03T13:17:53.708Z,28.31
2023-02-03T13:18:53.714Z,28.30
2023-02-03T13:19:53.697Z,28.32
2023-02-03T13:20:54.073Z,28.28
2023-02-03T13:21:53.694Z,28.25
2023-02-03T13:22:53.672Z,28.32
2023-02-03T13:23:53.668Z,28.26
2023-02-03T13:24:53.653Z,28.28
2023-02-03T13:25:54.100Z,28.28
2023-02-03T13:26:53.649Z,28.21
2023-02-03T13:27:53.661Z,28.24
2023-02-03T13:28:53.617Z,28.22
2023-02-03T13:29:53.616Z,28.22
2023-02-03T13:30:54.120Z,28.22
2023-02-03T13:31:53.659Z,28.18
2023-02-03T13:32:53.600Z,28.19
2023-02-03T13:33:53.594Z,28.19
2023-02-03T13:34:53.573Z,28.18
2023-02-03T13:35:53.570Z,28.21
2023-02-03T13:36:53.600Z,28.15
2023-02-03T13:37:53.555Z,28.18
2023-02-03T13:38:53.534Z,28.12
2023-02-03T13:39:53.540Z,28.12
2023-02-03T13:40:53.520Z,28.15
2023-02-03T13:41:53.543Z,28.16
2023-02-03T13:42:53.572Z,28.12
2023-02-03T13:43:53.499Z,28.18
2023-02-03T13:44:53.525Z,28.18
2023-02-03T13:45:53.633Z,28.14
2023-02-03T13:46:53.482Z,28.12
2023-02-03T13:47:53.619Z,28.09
2023-02-03T13:48:53.458Z,28.09
2023-02-03T13:49:53.455Z,28.12
2023-02-03T13:50:53.440Z,28.12
2023-02-03T13:51:53.434Z,28.11
2023-02-03T13:52:54.760Z,28.15
2023-02-03T13:53:53.414Z,28.07
2023-02-03T13:54:53.403Z,28.09
2023-02-03T13:55:53.586Z,28.09
2023-02-03T13:56:53.403Z,28.12
2023-02-03T13:57:53.422Z,28.09
2023-02-03T13:58:53.374Z,28.07
2023-02-03T13:59:53.369Z,28.10
2023-02-03T14:00:53.610Z,28.09
2023-02-03T14:01:53.346Z,28.11
2023-02-03T14:02:53.357Z,28.07
2023-02-03T14:03:53.541Z,28.11
2023-02-03T14:04:54.437Z,28.07
2023-02-03T14:05:53.608Z,28.03
2023-02-03T14:06:53.316Z,28.05
2023-02-03T14:07:53.303Z,28.06
2023-02-03T14:08:53.295Z,28.09
2023-02-03T14:09:53.294Z,28.06
2023-02-03T14:10:53.636Z,28.05
2023-02-03T14:11:53.279Z,28.03
2023-02-03T14:12:53.263Z,28.03
2023-02-03T14:13:53.290Z,28.12
2023-02-03T14:14:53.264Z,28.02
2023-02-03T14:15:53.233Z,28.02
2023-02-03T14:16:54.979Z,28.03
2023-02-03T14:17:53.218Z,28.05
2023-02-03T14:18:53.210Z,28.08
2023-02-03T14:19:53.216Z,28.01
2023-02-03T14:20:53.628Z,27.98
2023-02-03T14:21:53.201Z,27.98
2023-02-03T14:22:53.253Z,28.01
2023-02-03T14:23:53.207Z,27.99
2023-02-03T14:24:53.164Z,28.01
2023-02-03T14:25:53.155Z,27.98
2023-02-03T14:26:53.152Z,27.99
2023-02-03T14:27:53.200Z,28.00
2023-02-03T14:28:54.004Z,27.99
2023-02-03T14:29:53.149Z,28.00
2023-02-03T14:30:53.281Z,27.99
2023-02-03T14:31:53.151Z,27.99
2023-02-03T14:32:53.097Z,28.01
2023-02-03T14:33:53.097Z,27.96
2023-02-03T14:34:53.085Z,27.98
2023-02-03T14:35:53.121Z,27.93
2023-02-03T14:36:53.135Z,27.95
2023-02-03T14:37:53.064Z,28.01
2023-02-03T14:38:53.050Z,27.98
2023-02-03T14:39:53.061Z,27.93
2023-02-03T14:40:53.031Z,27.95
2023-02-03T14:41:53.038Z,27.96
2023-02-03T14:42:58.596Z,27.93
2023-02-03T14:43:53.140Z,27.95
2023-02-03T14:44:53.011Z,27.95
2023-02-03T14:45:53.055Z,27.95
2023-02-03T14:46:53.909Z,27.95
2023-02-03T14:47:52.977Z,27.95
2023-02-03T14:48:52.970Z,27.91
2023-02-03T14:49:52.959Z,27.96
2023-02-03T14:50:52.957Z,27.92
2023-02-03T14:51:52.951Z,27.92
2023-02-03T14:52:53.603Z,27.96
2023-02-03T14:53:52.929Z,27.95
2023-02-03T14:54:53.000Z,27.93
2023-02-03T14:55:52.913Z,27.89
2023-02-03T14:56:53.227Z,27.91
2023-02-03T14:57:52.888Z,27.93
2023-02-03T14:58:52.886Z,27.89
2023-02-03T14:59:52.889Z,27.89
2023-02-03T15:00:52.875Z,27.84
2023-02-03T15:01:53.270Z,27.84
2023-02-03T15:02:52.854Z,27.83
2023-02-03T15:03:52.841Z,27.87
2023-02-03T15:04:52.904Z,27.82
2023-02-03T15:05:52.823Z,27.84
2023-02-03T15:06:52.895Z,27.82
2023-02-03T15:07:53.137Z,27.83
2023-02-03T15:08:52.797Z,27.82
2023-02-03T15:09:52.794Z,27.84
2023-02-03T15:10:52.783Z,27.82
2023-02-03T15:11:53.135Z,27.83
2023-02-03T15:12:52.764Z,27.80
2023-02-03T15:13:52.773Z,27.77
2023-02-03T15:14:52.760Z,27.80
2023-02-03T15:15:52.779Z,27.77
2023-02-03T15:16:52.737Z,27.84
2023-02-03T15:17:53.137Z,27.82
2023-02-03T15:18:52.712Z,27.80
2023-02-03T15:19:52.723Z,27.77
2023-02-03T15:20:53.344Z,27.75
2023-02-03T15:21:52.693Z,27.79
2023-02-03T15:22:52.679Z,27.71
2023-02-03T15:23:52.671Z,27.77
2023-02-03T15:24:52.704Z,27.73
2023-02-03T15:25:52.664Z,27.75
2023-02-03T15:26:52.646Z,27.71
2023-02-03T15:27:53.152Z,27.69
2023-02-03T15:28:52.630Z,27.73
2023-02-03T15:29:52.634Z,27.70
2023-02-03T15:30:52.792Z,27.74
2023-02-03T15:31:52.673Z,27.69
2023-02-03T15:32:52.593Z,27.70
2023-02-03T15:33:53.135Z,27.67
2023-02-03T15:34:52.619Z,27.64
2023-02-03T15:35:52.573Z,27.64
2023-02-03T15:36:52.561Z,27.64
2023-02-03T15:37:52.581Z,27.64
2023-02-03T15:38:52.547Z,27.66
2023-02-03T15:39:52.535Z,27.64
2023-02-03T15:40:52.527Z,27.64
2023-02-03T15:41:52.531Z,27.66
2023-02-03T15:42:52.523Z,27.60
2023-02-03T15:43:52.505Z,27.58
2023-02-03T15:44:52.497Z,27.63
2023-02-03T15:45:52.484Z,27.60
2023-02-03T15:46:52.817Z,27.61
2023-02-03T15:47:52.473Z,27.57
2023-02-03T15:48:52.457Z,27.61
2023-02-03T15:49:52.480Z,27.57
2023-02-03T15:50:52.442Z,27.58
2023-02-03T15:51:52.434Z,27.57
2023-02-03T15:52:52.440Z,27.58
2023-02-03T15:53:52.426Z,27.56
2023-02-03T15:54:52.411Z,27.54
2023-02-03T15:55:52.405Z,27.54
2023-02-03T15:56:52.392Z,27.56
2023-02-03T15:57:52.383Z,27.53
2023-02-03T15:58:52.371Z,27.57
2023-02-03T15:59:52.364Z,27.53
2023-02-03T16:00:52.371Z,27.56
2023-02-03T16:01:52.482Z,27.51